Time;durP1;ratioP1;P1;durP2;ratioP2;P2;SDS_P1;SDS_P2;PMS_P1;PMS_P2;Temp;Humidity;BMP_temperature;BMP_pressure;BME280_temperature;BME280_humidity;BME280_pressure;Samples;Min_cycle;Max_cycle;Signal;HPM_P1;HPM_P2
2022/03/21 00:01:51;;;;;;;114.88;47.50;;;1.80;99.90;;;;;;5118048;27;20090;-85
2022/03/21 00:04:17;;;;;;;124.90;49.80;;;1.80;99.90;;;;;;5101181;27;20559;-85
2022/03/21 00:06:43;;;;;;;117.30;48.33;;;1.80;99.90;;;;;;5117633;27;20050;-86
2022/03/21 00:09:09;;;;;;;118.50;47.75;;;1.80;99.90;;;;;;5118115;27;20039;-85
2022/03/21 00:11:34;;;;;;;128.80;49.78;;;1.70;99.90;;;;;;5118097;27;20412;-86
2022/03/21 00:14:00;;;;;;;121.45;50.10;;;1.80;99.90;;;;;;5118059;27;20119;-85
2022/03/21 00:16:26;;;;;;;112.88;47.88;;;1.70;99.90;;;;;;5117867;27;20545;-85
2022/03/21 00:18:52;;;;;;;127.43;50.58;;;1.70;99.90;;;;;;5117812;27;20035;-85
2022/03/21 00:21:18;;;;;;;123.20;48.10;;;1.70;99.90;;;;;;5117916;27;20046;-85
2022/03/21 00:23:44;;;;;;;121.53;48.95;;;1.70;99.90;;;;;;5100953;27;20096;-86
2022/03/21 00:26:10;;;;;;;116.55;48.08;;;1.60;99.90;;;;;;5118046;27;20489;-85
2022/03/21 00:28:36;;;;;;;116.72;48.08;;;1.80;99.90;;;;;;5117632;27;20039;-86
2022/03/21 00:31:02;;;;;;;115.35;47.63;;;1.60;99.90;;;;;;5117678;27;20497;-85
2022/03/21 00:33:28;;;;;;;122.88;49.00;;;1.60;99.90;;;;;;5117613;27;20092;-85
2022/03/21 00:35:54;;;;;;;125.30;49.33;;;1.60;99.90;;;;;;5100698;27;20027;-85
2022/03/21 00:38:21;;;;;;;122.57;47.72;;;1.50;99.90;;;;;;5117471;27;20054;-85
2022/03/21 00:40:47;;;;;;;124.82;47.47;;;1.50;99.90;;;;;;5117365;27;20068;-85
2022/03/21 00:43:19;;;;;;;127.10;49.78;;;1.50;99.90;;;;;;5100445;27;20035;-85
2022/03/21 00:45:46;;;;;;;141.45;52.25;;;1.50;99.90;;;;;;5100471;27;20054;-85
2022/03/21 00:48:12;;;;;;;145.35;53.13;;;1.40;99.90;;;;;;5100253;27;20043;-85
2022/03/21 00:50:38;;;;;;;137.93;52.20;;;1.40;99.90;;;;;;5117180;27;20066;-85
2022/03/21 00:53:04;;;;;;;145.00;55.95;;;1.50;99.90;;;;;;5117467;27;20461;-85
2022/03/21 00:55:29;;;;;;;145.98;54.60;;;1.40;99.90;;;;;;5100456;27;20112;-85
2022/03/21 00:57:55;;;;;;;136.85;52.75;;;1.50;99.90;;;;;;5117082;27;20043;-85
2022/03/21 01:00:25;;;;;;;151.02;54.75;;;1.50;99.90;;;;;;5100195;27;20088;-85
2022/03/21 01:02:51;;;;;;;147.80;56.47;;;1.50;99.90;;;;;;5116985;27;20096;-85
2022/03/21 01:05:17;;;;;;;147.02;54.53;;;1.50;99.90;;;;;;5117106;27;20051;-85
2022/03/21 01:07:43;;;;;;;156.15;55.33;;;1.50;99.90;;;;;;5135698;27;20043;-86
2022/03/21 01:10:11;;;;;;;157.63;55.72;;;1.40;99.90;;;;;;5116867;27;20481;-85
2022/03/21 01:12:37;;;;;;;162.32;56.15;;;1.50;99.90;;;;;;5116712;27;20065;-85
2022/03/21 01:15:04;;;;;;;167.63;58.70;;;1.50;99.90;;;;;;5116735;27;20043;-85
2022/03/21 01:17:29;;;;;;;161.95;58.97;;;1.50;99.90;;;;;;5099903;27;20069;-85
2022/03/21 01:19:55;;;;;;;143.98;55.30;;;1.50;99.90;;;;;;5117086;27;20571;-85
2022/03/21 01:22:21;;;;;;;157.02;56.80;;;1.50;99.90;;;;;;5116725;27;20496;-85
2022/03/21 01:24:46;;;;;;;185.40;62.17;;;1.50;99.90;;;;;;5099753;27;20126;-85
2022/03/21 01:27:12;;;;;;;156.82;57.22;;;1.50;99.90;;;;;;5116605;27;20050;-85
2022/03/21 01:29:38;;;;;;;150.30;54.38;;;1.50;99.90;;;;;;5099331;27;20077;-85
2022/03/21 01:32:04;;;;;;;141.38;54.35;;;1.40;99.90;;;;;;5116237;27;20074;-85
2022/03/21 01:34:30;;;;;;;149.25;54.70;;;1.50;99.90;;;;;;5117405;27;20042;-85
2022/03/21 01:36:55;;;;;;;159.13;56.10;;;1.50;99.90;;;;;;5099937;27;20031;-85
2022/03/21 01:39:21;;;;;;;172.27;56.38;;;1.50;99.90;;;;;;5116535;27;20126;-85
2022/03/21 01:41:47;;;;;;;165.60;59.42;;;1.40;99.90;;;;;;5099398;27;20473;-85
2022/03/21 01:44:14;;;;;;;161.95;58.17;;;1.40;99.90;;;;;;5116041;28;20051;-85
2022/03/21 01:46:43;;;;;;;145.30;55.33;;;1.40;99.90;;;;;;5116028;27;20047;-85
2022/03/21 01:49:09;;;;;;;156.38;55.20;;;1.30;99.90;;;;;;5099144;27;20081;-85
2022/03/21 01:51:40;;;;;;;144.00;55.05;;;1.90;99.90;;;;;;5116135;27;20039;-85
2022/03/21 01:56:51;;;;;;;133.90;52.33;;;1.20;99.90;;;;;;5116018;27;20043;-85
2022/03/21 01:59:19;;;;;;;155.85;57.30;;;1.20;99.90;;;;;;5116560;28;20450;-85
2022/03/21 02:01:45;;;;;;;153.70;56.00;;;1.20;99.90;;;;;;5116241;27;20075;-86
2022/03/21 02:04:11;;;;;;;150.32;56.03;;;1.30;99.90;;;;;;5116210;27;20051;-85
2022/03/21 02:06:37;;;;;;;142.02;55.38;;;1.30;99.90;;;;;;5116138;28;20079;-85
2022/03/21 02:09:06;;;;;;;141.57;53.72;;;1.30;99.90;;;;;;5116011;28;20048;-85
2022/03/21 02:11:33;;;;;;;144.18;53.80;;;1.30;99.90;;;;;;5115787;28;20499;-85
2022/03/21 02:14:00;;;;;;;134.93;52.50;;;1.20;99.90;;;;;;5099300;28;20039;-85
2022/03/21 02:16:28;;;;;;;128.98;51.90;;;1.20;99.90;;;;;;5118734;28;20047;-85
2022/03/21 02:18:56;;;;;;;142.05;53.85;;;1.20;99.90;;;;;;5123557;28;20043;-85
2022/03/21 02:21:54;;;;;;;134.50;51.83;;;1.10;99.90;;;;;;5106519;28;20054;-85
2022/03/21 02:24:52;;;;;;;148.90;52.72;;;1.10;99.90;;;;;;5121699;28;20039;-85
2022/03/21 02:27:19;;;;;;;136.18;53.15;;;1.10;99.90;;;;;;5099174;27;20058;-85
2022/03/21 02:29:49;;;;;;;142.48;51.63;;;1.10;99.90;;;;;;5119473;27;20047;-85
2022/03/21 02:32:15;;;;;;;129.60;50.88;;;1.10;99.90;;;;;;5119826;27;20050;-85
2022/03/21 02:34:41;;;;;;;134.98;51.25;;;1.10;99.90;;;;;;5102998;27;20047;-85
2022/03/21 02:37:10;;;;;;;132.70;51.63;;;1.10;99.90;;;;;;5120235;27;20043;-85
2022/03/21 02:39:37;;;;;;;140.70;51.75;;;1.00;99.90;;;;;;5119787;27;20042;-85
2022/03/21 02:42:04;;;;;;;134.43;51.13;;;1.00;99.90;;;;;;5119869;27;20103;-85
2022/03/21 02:44:35;;;;;;;136.93;53.15;;;1.00;99.90;;;;;;5119655;27;20039;-85
2022/03/21 02:47:01;;;;;;;136.82;52.22;;;1.00;99.90;;;;;;5119665;27;20055;-85
2022/03/21 02:49:27;;;;;;;136.60;52.20;;;1.30;99.90;;;;;;5119552;27;20474;-85
2022/03/21 02:51:54;;;;;;;141.23;53.75;;;0.90;99.90;;;;;;5119604;27;20046;-85
2022/03/21 02:54:22;;;;;;;149.50;57.00;;;0.90;99.90;;;;;;5119456;27;20055;-85
2022/03/21 02:56:48;;;;;;;140.77;53.55;;;0.90;99.90;;;;;;5119495;27;20054;-85
2022/03/21 02:59:16;;;;;;;142.48;54.70;;;0.90;99.90;;;;;;5119724;27;20462;-85
2022/03/21 03:01:43;;;;;;;136.40;52.70;;;0.90;99.90;;;;;;5119663;27;20065;-85
2022/03/21 03:04:09;;;;;;;135.40;52.92;;;0.90;99.90;;;;;;5119277;27;20039;-85
2022/03/21 03:06:34;;;;;;;144.02;52.92;;;0.90;99.90;;;;;;5119603;27;20047;-85
2022/03/21 03:09:00;;;;;;;141.60;53.72;;;0.90;99.90;;;;;;5102282;27;20480;-85
2022/03/21 03:11:26;;;;;;;142.05;53.20;;;0.90;99.90;;;;;;5119267;27;20035;-85
2022/03/21 03:13:51;;;;;;;148.43;54.75;;;0.90;99.90;;;;;;5119359;27;20038;-85
2022/03/21 03:16:18;;;;;;;144.50;56.17;;;0.80;99.90;;;;;;5137819;27;20039;-85
2022/03/21 03:18:44;;;;;;;141.77;53.53;;;0.90;99.90;;;;;;5102412;27;20140;-85
2022/03/21 03:21:11;;;;;;;140.35;53.53;;;0.90;99.90;;;;;;5119284;27;20385;-85
2022/03/21 03:23:39;;;;;;;124.10;48.92;;;0.80;99.90;;;;;;5137768;27;20051;-85
2022/03/21 03:26:05;;;;;;;138.43;51.50;;;0.90;99.90;;;;;;5119309;27;20035;-85
2022/03/21 03:28:31;;;;;;;138.52;53.05;;;0.90;99.90;;;;;;5119457;27;20461;-85
2022/03/21 03:31:00;;;;;;;154.63;54.33;;;0.90;99.90;;;;;;5119022;27;20087;-85
2022/03/21 03:33:27;;;;;;;131.60;51.63;;;0.90;99.90;;;;;;5118896;27;20042;-85
2022/03/21 03:35:53;;;;;;;153.98;55.00;;;0.90;99.90;;;;;;5118811;27;20070;-85
2022/03/21 03:38:19;;;;;;;142.50;53.70;;;0.80;99.90;;;;;;5103240;27;20116;-85
2022/03/21 03:40:45;;;;;;;140.65;52.90;;;0.90;99.90;;;;;;5117414;27;20046;-85
2022/03/21 03:43:15;;;;;;;143.15;55.38;;;0.90;99.90;;;;;;5118978;27;20047;-85
2022/03/21 03:45:42;;;;;;;137.30;53.42;;;0.90;99.90;;;;;;5118409;27;20104;-85
2022/03/21 03:48:09;;;;;;;161.23;58.58;;;0.80;99.90;;;;;;5118487;27;20053;-85
2022/03/21 03:50:34;;;;;;;153.88;57.55;;;0.80;99.90;;;;;;5101330;27;20039;-85
2022/03/21 03:53:01;;;;;;;158.35;59.08;;;0.80;99.90;;;;;;5101591;27;20054;-85
2022/03/21 03:55:26;;;;;;;158.75;57.88;;;0.80;99.90;;;;;;5101426;27;20108;-85
2022/03/21 03:57:53;;;;;;;153.25;58.40;;;0.90;99.90;;;;;;5118391;27;20051;-85
2022/03/21 04:00:19;;;;;;;137.10;53.85;;;0.90;99.90;;;;;;5101418;27;20073;-85
2022/03/21 04:05:30;;;;;;;143.80;54.35;;;0.80;99.90;;;;;;5118458;27;20046;-85
2022/03/21 04:07:55;;;;;;;144.30;54.28;;;0.70;99.90;;;;;;5118176;27;20035;-85
2022/03/21 04:10:22;;;;;;;140.57;53.17;;;0.80;99.90;;;;;;5118246;27;20043;-85
2022/03/21 04:12:51;;;;;;;159.65;56.55;;;0.70;99.90;;;;;;5101321;27;20046;-85
2022/03/21 04:15:19;;;;;;;145.50;53.03;;;0.80;99.90;;;;;;5118118;27;20051;-85
2022/03/21 04:17:45;;;;;;;146.07;54.42;;;0.70;99.90;;;;;;5101050;27;20095;-85
2022/03/21 04:20:12;;;;;;;148.63;54.45;;;0.80;99.90;;;;;;5100826;27;20437;-85
2022/03/21 04:22:37;;;;;;;149.00;54.15;;;0.70;99.90;;;;;;5117883;27;20035;-85
2022/03/21 04:25:05;;;;;;;152.38;56.60;;;0.70;99.90;;;;;;5117838;27;20359;-85
2022/03/21 04:27:31;;;;;;;147.60;55.35;;;0.70;99.90;;;;;;5100647;27;20482;-85
2022/03/21 04:29:57;;;;;;;153.50;56.05;;;0.80;99.90;;;;;;5136500;27;20047;-85
2022/03/21 04:32:22;;;;;;;152.95;57.28;;;0.70;99.90;;;;;;5118100;27;20051;-85
2022/03/21 04:34:48;;;;;;;154.23;56.85;;;0.80;99.90;;;;;;5117910;27;20031;-85
2022/03/21 04:37:13;;;;;;;159.95;56.88;;;0.70;99.90;;;;;;5100699;27;20431;-85
2022/03/21 04:39:39;;;;;;;150.95;55.55;;;0.70;99.90;;;;;;5117768;27;20126;-85
2022/03/21 04:42:05;;;;;;;154.90;56.28;;;0.70;99.90;;;;;;5118066;27;20381;-85
2022/03/21 04:44:35;;;;;;;151.98;54.72;;;0.70;99.90;;;;;;5117654;27;20043;-85
2022/03/21 04:47:00;;;;;;;150.27;54.65;;;0.70;99.90;;;;;;5117046;27;20054;-85
2022/03/21 04:49:26;;;;;;;163.48;59.50;;;0.70;99.90;;;;;;5117482;27;20088;-85
2022/03/21 04:51:52;;;;;;;155.30;54.53;;;0.70;99.90;;;;;;5100117;27;20043;-85
2022/03/21 04:54:17;;;;;;;149.10;56.63;;;0.70;99.90;;;;;;5117331;27;20397;-85
2022/03/21 04:56:43;;;;;;;154.98;57.08;;;0.70;99.90;;;;;;5117260;27;20491;-85
2022/03/21 04:59:09;;;;;;;151.02;54.83;;;0.70;99.90;;;;;;5117767;27;20039;-85
2022/03/21 05:01:36;;;;;;;145.13;52.95;;;0.70;99.90;;;;;;5117051;27;20050;-85
2022/03/21 05:04:02;;;;;;;143.85;55.70;;;0.70;99.90;;;;;;5135626;27;20043;-85
2022/03/21 05:06:28;;;;;;;146.20;55.67;;;0.70;99.90;;;;;;5135836;27;20153;-85
2022/03/21 05:08:54;;;;;;;151.50;54.13;;;0.70;99.90;;;;;;5116967;27;20075;-85
2022/03/21 05:11:19;;;;;;;149.35;54.88;;;0.70;99.90;;;;;;5116875;27;20046;-85
2022/03/21 05:13:45;;;;;;;162.32;57.60;;;0.70;99.90;;;;;;5117246;27;20122;-85
2022/03/21 05:16:11;;;;;;;166.82;57.30;;;0.70;99.90;;;;;;5099690;27;20485;-86
2022/03/21 05:18:37;;;;;;;147.43;55.75;;;0.60;99.90;;;;;;5099912;27;20039;-85
2022/03/21 05:21:04;;;;;;;165.30;56.72;;;0.70;99.90;;;;;;5116645;27;20042;-85
2022/03/21 05:31:43;;;;;;;149.82;55.03;;;0.70;99.90;;;;;;5119967;27;20055;-85
2022/03/21 05:36:54;;;;;;;148.95;53.38;;;1.20;99.90;;;;;;5117163;27;20043;-85
2022/03/21 05:39:21;;;;;;;142.50;50.95;;;0.60;99.90;;;;;;5105425;27;20050;-85
2022/03/21 05:41:48;;;;;;;138.98;51.53;;;0.60;99.90;;;;;;5116677;27;20047;-85
2022/03/21 05:44:13;;;;;;;127.13;48.40;;;0.60;99.90;;;;;;5116375;27;20046;-85
2022/03/21 05:46:39;;;;;;;135.15;50.05;;;0.60;99.90;;;;;;5099020;27;20054;-85
2022/03/21 05:49:05;;;;;;;130.95;49.33;;;0.60;99.90;;;;;;5116461;27;20088;-85
2022/03/21 05:51:33;;;;;;;144.15;51.03;;;0.60;99.90;;;;;;5116004;27;20039;-85
2022/03/21 05:54:01;;;;;;;134.65;47.38;;;0.60;99.90;;;;;;5116050;27;20050;-85
2022/03/21 05:56:27;;;;;;;156.10;51.33;;;0.60;99.90;;;;;;5116965;27;20118;-85
2022/03/21 05:58:54;;;;;;;141.75;51.15;;;0.60;99.90;;;;;;5117197;27;20044;-85
2022/03/21 06:01:23;;;;;;;148.20;50.42;;;0.60;99.90;;;;;;5116137;27;20043;-85
2022/03/21 06:03:54;;;;;;;147.30;51.17;;;0.70;99.90;;;;;;5098709;27;20390;-85
2022/03/21 06:06:21;;;;;;;133.02;48.90;;;0.70;99.90;;;;;;5116168;27;20133;-85
2022/03/21 06:08:48;;;;;;;149.35;52.53;;;0.80;99.90;;;;;;5099304;28;20370;-85
2022/03/21 06:11:14;;;;;;;134.10;48.30;;;0.80;99.90;;;;;;5098898;28;20064;-85
2022/03/21 06:13:42;;;;;;;140.65;49.58;;;0.80;99.90;;;;;;5116333;28;20047;-85
2022/03/21 06:16:08;;;;;;;134.38;48.08;;;0.80;99.90;;;;;;5116195;28;20035;-85
2022/03/21 06:18:36;;;;;;;141.77;51.20;;;0.90;99.90;;;;;;5116132;28;20047;-85
2022/03/21 06:21:03;;;;;;;153.13;51.50;;;0.90;99.90;;;;;;5134630;28;20035;-85
2022/03/21 06:23:29;;;;;;;145.82;49.85;;;0.90;99.90;;;;;;5099006;28;20043;-85
2022/03/21 06:25:56;;;;;;;144.68;50.78;;;1.00;99.90;;;;;;5115905;28;20171;-85
2022/03/21 06:28:25;;;;;;;138.98;49.47;;;1.00;99.90;;;;;;5116075;28;20054;-85
2022/03/21 06:30:51;;;;;;;132.35;47.30;;;1.00;99.90;;;;;;5098780;28;20046;-85
2022/03/21 06:33:22;;;;;;;140.98;48.90;;;1.10;99.90;;;;;;5115969;28;20047;-85
2022/03/21 06:35:52;;;;;;;146.57;51.70;;;1.10;99.90;;;;;;5116011;28;20039;-85
2022/03/21 06:38:18;;;;;;;142.23;52.00;;;1.20;99.90;;;;;;5115787;28;20046;-85
2022/03/21 06:40:44;;;;;;;147.05;50.60;;;1.30;99.90;;;;;;5098738;28;20035;-86
2022/03/21 06:43:11;;;;;;;154.90;51.90;;;1.30;99.90;;;;;;5115795;28;20100;-85
2022/03/21 06:45:36;;;;;;;148.80;52.17;;;1.40;99.90;;;;;;5098935;28;20116;-86
2022/03/21 06:48:03;;;;;;;156.63;52.47;;;1.50;99.90;;;;;;5115827;28;20062;-85
2022/03/21 06:50:28;;;;;;;153.43;53.58;;;1.50;99.90;;;;;;5098760;28;20054;-85
2022/03/21 06:52:54;;;;;;;154.48;54.03;;;1.60;99.90;;;;;;5098493;28;20040;-86
2022/03/21 06:55:20;;;;;;;150.93;51.90;;;1.70;99.90;;;;;;5098519;28;20043;-86
2022/03/21 06:57:46;;;;;;;136.23;51.58;;;1.70;99.90;;;;;;5115477;28;20130;-86
2022/03/21 07:00:13;;;;;;;147.68;51.33;;;1.80;99.90;;;;;;5115523;28;20078;-86
2022/03/21 07:02:43;;;;;;;151.30;49.90;;;1.90;99.90;;;;;;5115510;28;20043;-85
2022/03/21 07:05:09;;;;;;;159.15;53.92;;;1.90;99.90;;;;;;5098571;28;20122;-86
2022/03/21 07:07:35;;;;;;;146.18;50.45;;;1.90;99.90;;;;;;5098530;28;20047;-86
2022/03/21 07:10:02;;;;;;;141.05;49.75;;;2.00;99.90;;;;;;5099134;28;20027;-86
2022/03/21 07:12:28;;;;;;;146.50;49.60;;;2.20;99.90;;;;;;5098310;28;20050;-86
2022/03/21 07:14:53;;;;;;;154.75;51.65;;;2.20;99.90;;;;;;5100213;27;20039;-86
2022/03/21 07:17:20;;;;;;;131.55;48.97;;;2.20;99.90;;;;;;5119569;27;20537;-86
2022/03/21 07:19:46;;;;;;;137.68;48.92;;;2.30;99.90;;;;;;5119229;27;20402;-86
2022/03/21 07:22:13;;;;;;;118.90;44.70;;;2.30;99.90;;;;;;5119497;27;20396;-86
2022/03/21 07:24:39;;;;;;;129.70;49.28;;;2.30;99.90;;;;;;5102828;27;20045;-86
2022/03/21 07:27:05;;;;;;;131.40;47.80;;;2.40;99.90;;;;;;5119168;27;20129;-86
2022/03/21 07:29:31;;;;;;;130.02;48.63;;;2.50;99.90;;;;;;5119130;27;20043;-86
2022/03/21 07:31:57;;;;;;;118.57;45.50;;;2.60;99.90;;;;;;5118847;27;20104;-86
2022/03/21 07:34:23;;;;;;;113.28;44.03;;;2.70;99.90;;;;;;5119051;27;20046;-86
2022/03/21 07:36:50;;;;;;;116.90;45.70;;;2.80;99.90;;;;;;5101874;27;20088;-86
2022/03/21 07:39:16;;;;;;;113.07;43.70;;;2.90;99.90;;;;;;5102077;27;20088;-86
2022/03/21 07:41:41;;;;;;;109.07;42.17;;;3.00;99.90;;;;;;5118848;27;20054;-87
2022/03/21 07:44:07;;;;;;;97.38;40.33;;;3.10;99.90;;;;;;5118907;27;20035;-85
2022/03/21 07:49:17;;;;;;;88.07;36.35;;;3.30;99.90;;;;;;5118599;27;20126;-86
2022/03/21 07:51:43;;;;;;;88.80;38.88;;;3.50;99.90;;;;;;5118787;27;20123;-86
2022/03/21 07:54:13;;;;;;;90.55;36.63;;;3.50;99.90;;;;;;5101365;27;20104;-86
2022/03/21 07:56:40;;;;;;;83.20;36.17;;;3.60;99.90;;;;;;5101373;27;20103;-86
2022/03/21 07:59:06;;;;;;;87.57;36.47;;;3.70;99.90;;;;;;5101797;27;20129;-86
2022/03/21 08:01:32;;;;;;;76.65;32.65;;;3.80;99.90;;;;;;5118303;27;20047;-86
2022/03/21 08:04:00;;;;;;;64.28;30.40;;;3.90;99.90;;;;;;5101467;27;20046;-86
2022/03/21 08:06:26;;;;;;;59.40;27.90;;;4.10;99.90;;;;;;5101420;27;20043;-86
2022/03/21 08:08:54;;;;;;;62.17;26.70;;;4.20;99.90;;;;;;5118873;27;20043;-86
2022/03/21 08:11:21;;;;;;;58.80;25.58;;;4.40;99.90;;;;;;5101395;27;20047;-86
2022/03/21 08:13:49;;;;;;;49.10;23.67;;;4.50;99.90;;;;;;5118522;27;20051;-86
2022/03/21 08:16:20;;;;;;;44.85;22.42;;;4.70;99.90;;;;;;5118331;27;20035;-86
2022/03/21 08:18:55;;;;;;;51.85;23.92;;;5.00;99.90;;;;;;5118021;27;20511;-86
2022/03/21 08:21:21;;;;;;;43.03;22.38;;;5.20;99.90;;;;;;5101396;27;20428;-86
2022/03/21 08:23:48;;;;;;;45.22;21.83;;;5.40;99.90;;;;;;5101157;27;20035;-86
2022/03/21 08:26:14;;;;;;;45.33;21.83;;;5.80;99.90;;;;;;5117221;27;20050;-86
2022/03/21 08:28:39;;;;;;;45.10;21.58;;;5.60;99.90;;;;;;5117961;27;20055;-86
2022/03/21 08:31:05;;;;;;;40.83;21.08;;;5.80;99.90;;;;;;5101004;27;20039;-86
2022/03/21 08:33:31;;;;;;;42.90;21.10;;;6.00;99.90;;;;;;5118122;27;20138;-86
2022/03/21 08:35:56;;;;;;;42.22;20.38;;;6.90;99.90;;;;;;5120366;27;20453;-86
2022/03/21 08:38:22;;;;;;;42.95;21.42;;;6.20;99.90;;;;;;5122029;27;20493;-85
2022/03/21 08:40:47;;;;;;;34.40;19.15;;;6.80;99.90;;;;;;5104673;27;20100;-86
2022/03/21 08:43:13;;;;;;;40.47;20.13;;;6.60;99.90;;;;;;5118724;27;20035;-86
2022/03/21 08:45:40;;;;;;;40.25;19.40;;;6.80;99.90;;;;;;5100356;27;20053;-84
2022/03/21 08:48:06;;;;;;;37.08;19.52;;;6.90;99.90;;;;;;5100541;27;20047;-84
2022/03/21 08:50:34;;;;;;;36.88;20.25;;;7.10;99.90;;;;;;5100438;27;20072;-84
2022/03/21 08:53:00;;;;;;;37.28;19.48;;;7.80;99.90;;;;;;5100562;27;20095;-84
2022/03/21 08:55:25;;;;;;;39.65;19.50;;;7.40;99.90;;;;;;5117741;27;20126;-84
2022/03/21 08:57:51;;;;;;;38.15;20.13;;;7.50;99.90;;;;;;5100299;27;20043;-84
2022/03/21 09:00:17;;;;;;;40.70;19.90;;;8.30;99.90;;;;;;5100222;27;20046;-84
2022/03/21 09:02:46;;;;;;;40.90;19.65;;;7.80;99.90;;;;;;5117383;27;20381;-84
2022/03/21 09:05:14;;;;;;;39.15;20.40;;;8.10;99.90;;;;;;5117829;27;20050;-84
2022/03/21 09:07:41;;;;;;;39.35;19.23;;;8.70;99.90;;;;;;5116909;27;20186;-84
2022/03/21 09:10:07;;;;;;;33.53;19.10;;;8.20;99.90;;;;;;5117084;27;20047;-84
2022/03/21 09:12:33;;;;;;;41.55;20.63;;;8.40;99.90;;;;;;5116904;27;20099;-84
2022/03/21 09:14:59;;;;;;;41.08;21.20;;;8.50;99.90;;;;;;5117368;27;20043;-84
2022/03/21 09:17:26;;;;;;;42.90;21.60;;;8.90;99.90;;;;;;5117154;27;20042;-84
2022/03/21 09:19:52;;;;;;;43.92;22.88;;;8.80;99.90;;;;;;5100113;27;20088;-84
2022/03/21 09:22:18;;;;;;;52.55;23.88;;;8.80;99.90;;;;;;5099793;27;20035;-84
2022/03/21 09:24:45;;;;;;;48.40;25.00;;;9.40;99.90;;;;;;5099705;27;20039;-85
2022/03/21 09:27:11;;;;;;;50.22;24.15;;;9.00;99.90;;;;;;5117045;27;20467;-85
2022/03/21 09:29:38;;;;;;;49.95;26.35;;;10.00;99.90;;;;;;5116557;27;20043;-84
2022/03/21 09:32:04;;;;;;;52.53;26.17;;;9.50;99.90;;;;;;5099751;27;20234;-84
2022/03/21 09:34:32;;;;;;;47.38;25.42;;;9.30;99.90;;;;;;5117541;27;20111;-83
2022/03/21 09:36:58;;;;;;;40.75;21.63;;;9.60;99.90;;;;;;5100495;27;20370;-84
2022/03/21 09:39:24;;;;;;;39.03;20.45;;;9.70;99.90;;;;;;5099087;27;20095;-84
2022/03/21 09:41:50;;;;;;;40.85;20.83;;;10.20;99.90;;;;;;5099479;27;20138;-84
2022/03/21 09:44:16;;;;;;;36.72;19.13;;;10.30;99.90;;;;;;5116753;27;20172;-84
2022/03/21 09:46:44;;;;;;;36.40;19.13;;;9.80;99.90;;;;;;5116194;27;20503;-84
2022/03/21 09:49:11;;;;;;;38.50;20.27;;;10.30;99.90;;;;;;5116406;27;20151;-84
2022/03/21 09:51:39;;;;;;;34.92;19.00;;;10.20;99.90;;;;;;5116399;27;20053;-84
2022/03/21 09:54:05;;;;;;;35.85;19.05;;;10.40;99.90;;;;;;5116312;27;20039;-84
2022/03/21 09:56:31;;;;;;;33.90;17.95;;;11.00;99.90;;;;;;5116262;27;20039;-84
2022/03/21 09:59:00;;;;;;;30.58;16.85;;;10.90;99.90;;;;;;5116127;27;20049;-84
2022/03/21 10:01:28;;;;;;;27.88;16.27;;;10.50;99.90;;;;;;5099520;27;20397;-84
2022/03/21 10:03:54;;;;;;;30.42;15.90;;;10.70;99.90;;;;;;5116180;28;20047;-85
2022/03/21 10:06:39;;;;;;;28.00;16.08;;;10.70;99.90;;;;;;5116246;27;20043;-85
2022/03/21 10:09:06;;;;;;;24.95;14.98;;;10.80;99.90;;;;;;5116251;28;20050;-85
2022/03/21 10:11:32;;;;;;;26.13;15.80;;;10.90;99.90;;;;;;5116114;28;20043;-85
2022/03/21 10:14:00;;;;;;;29.77;15.70;;;11.00;99.90;;;;;;5098962;28;20043;-85
2022/03/21 10:16:31;;;;;;;27.48;14.48;;;11.30;99.90;;;;;;5115932;28;20043;-85
2022/03/21 10:18:58;;;;;;;25.45;14.73;;;11.90;99.90;;;;;;5116019;28;20054;-85
2022/03/21 10:21:28;;;;;;;26.77;14.13;;;11.70;99.90;;;;;;5116317;28;20150;-85
2022/03/21 10:24:06;;;;;;;26.65;15.48;;;11.40;99.90;;;;;;5115883;28;20041;-85
2022/03/21 10:26:50;;;;;;;24.65;15.40;;;11.40;99.90;;;;;;5115938;28;20566;-85
2022/03/21 10:29:15;;;;;;;27.45;15.88;;;11.40;99.90;;;;;;5099315;28;20040;-85
2022/03/21 10:31:43;;;;;;;27.25;15.25;;;11.60;99.90;;;;;;5116497;28;20043;-85
2022/03/21 10:34:17;;;;;;;25.65;15.27;;;11.60;99.90;;;;;;5101865;28;20050;-85
2022/03/21 10:37:09;;;;;;;25.75;14.63;;;12.40;99.90;;;;;;5117781;28;20126;-85
2022/03/21 10:39:40;;;;;;;24.25;14.05;;;11.70;99.90;;;;;;5123674;28;20047;-85
2022/03/21 10:42:09;;;;;;;27.75;14.65;;;11.90;99.90;;;;;;5099782;28;20078;-85
2022/03/21 10:44:36;;;;;;;25.02;14.80;;;11.90;99.90;;;;;;5116022;28;20066;-85
2022/03/21 10:47:05;;;;;;;23.48;13.73;;;11.90;99.90;;;;;;5098605;28;20063;-85
2022/03/21 10:49:32;;;;;;;26.83;14.43;;;12.10;99.90;;;;;;5100153;27;20040;-85
2022/03/21 10:51:59;;;;;;;22.55;12.82;;;12.30;99.90;;;;;;5119788;27;20099;-85
2022/03/21 10:54:43;;;;;;;23.95;13.60;;;12.30;99.90;;;;;;5119800;27;20039;-85
2022/03/21 10:57:33;;;;;;;21.08;12.95;;;12.30;99.90;;;;;;5102665;27;20051;-85
2022/03/21 11:00:18;;;;;;;24.30;13.43;;;12.40;99.90;;;;;;5037985;28;20053;-85
2022/03/21 11:03:09;;;;;;;21.47;12.70;;;12.60;99.90;;;;;;5021686;28;20121;-86
2022/03/21 11:05:41;;;;;;;22.58;12.50;;;12.80;99.90;;;;;;5038142;28;20079;-86
2022/03/21 11:08:09;;;;;;;25.27;14.23;;;12.90;99.90;;;;;;5037727;28;20049;-86
2022/03/21 11:10:36;;;;;;;21.40;12.00;;;13.10;99.90;;;;;;5037729;28;20061;-84
2022/03/21 11:13:04;;;;;;;25.02;13.40;;;13.20;99.90;;;;;;5037830;28;20052;-85
2022/03/21 11:15:31;;;;;;;23.25;13.20;;;13.90;99.90;;;;;;5037679;28;20538;-85
2022/03/21 11:17:57;;;;;;;22.98;12.40;;;13.80;99.90;;;;;;5037609;28;20058;-85
2022/03/21 11:20:24;;;;;;;17.08;10.45;;;13.50;99.90;;;;;;5037542;28;20052;-85
2022/03/21 11:22:52;;;;;;;18.75;11.95;;;13.60;99.90;;;;;;5054491;28;20539;-85
2022/03/21 11:25:18;;;;;;;18.88;11.32;;;14.20;99.90;;;;;;5020832;28;20098;-85
2022/03/21 11:28:08;;;;;;;21.40;12.45;;;13.40;99.90;;;;;;5022216;28;20420;-85
2022/03/21 11:31:10;;;;;;;21.02;12.82;;;13.20;94.60;;;;;;5040028;28;20506;-85
2022/03/21 11:33:50;;;;;;;19.48;12.00;;;13.30;94.20;;;;;;5051592;28;20092;-85
2022/03/21 11:36:16;;;;;;;19.50;12.02;;;13.50;99.90;;;;;;5056057;27;20125;-85
2022/03/21 11:38:46;;;;;;;21.42;13.40;;;13.70;99.90;;;;;;5118855;27;20494;-85
2022/03/21 11:41:23;;;;;;;20.98;12.45;;;13.80;99.90;;;;;;5122508;27;20064;-85
2022/03/21 11:44:04;;;;;;;22.45;12.65;;;13.90;99.90;;;;;;5101702;27;20039;-85
2022/03/21 11:46:35;;;;;;;19.70;12.25;;;13.90;99.90;;;;;;5118381;27;20112;-85
2022/03/21 11:49:25;;;;;;;21.00;12.75;;;13.90;99.90;;;;;;5118722;27;20051;-85
2022/03/21 11:51:57;;;;;;;23.40;13.40;;;14.10;99.90;;;;;;5094403;27;20055;-86
2022/03/21 11:54:30;;;;;;;22.23;13.38;;;14.20;99.90;;;;;;5118435;27;20035;-85
2022/03/21 11:57:07;;;;;;;21.33;12.63;;;14.60;99.90;;;;;;5118682;27;20394;-86
2022/03/21 11:59:33;;;;;;;21.77;13.45;;;14.30;99.90;;;;;;5118365;27;20168;-85
2022/03/21 12:02:03;;;;;;;23.02;14.55;;;14.40;99.90;;;;;;5117226;27;20130;-86
2022/03/21 12:04:30;;;;;;;23.80;14.15;;;14.40;99.90;;;;;;5118371;27;20046;-85
2022/03/21 12:07:12;;;;;;;21.50;13.98;;;14.60;99.90;;;;;;5118533;27;20125;-85
2022/03/21 12:09:48;;;;;;;22.08;14.10;;;14.70;99.90;;;;;;5118777;27;20062;-86
2022/03/21 12:12:18;;;;;;;20.40;13.35;;;15.00;99.90;;;;;;5101433;27;20071;-86
2022/03/21 12:14:45;;;;;;;22.80;13.80;;;15.00;99.90;;;;;;5118645;27;20521;-85
2022/03/21 12:17:10;;;;;;;22.58;14.68;;;15.20;99.90;;;;;;5118241;27;20397;-86
2022/03/21 12:19:48;;;;;;;22.95;13.98;;;15.20;99.90;;;;;;5101502;27;20046;-85
2022/03/21 12:22:29;;;;;;;24.92;14.50;;;15.10;99.90;;;;;;5101630;27;20047;-86
2022/03/21 12:25:13;;;;;;;22.10;14.02;;;15.20;99.90;;;;;;5101006;27;20043;-86
2022/03/21 12:27:46;;;;;;;21.88;13.93;;;15.30;99.90;;;;;;5101079;27;20049;-85
2022/03/21 12:30:20;;;;;;;21.15;13.35;;;15.30;99.90;;;;;;5118297;27;20047;-85
2022/03/21 12:32:54;;;;;;;22.55;13.80;;;15.40;99.90;;;;;;5100829;27;20062;-85
2022/03/21 12:35:32;;;;;;;22.38;13.82;;;15.20;99.90;;;;;;5118026;27;20047;-85
2022/03/21 12:38:06;;;;;;;20.85;12.95;;;15.20;98.80;;;;;;5117834;27;20054;-85
2022/03/21 12:40:33;;;;;;;20.77;13.65;;;15.40;99.90;;;;;;5117957;27;20050;-85
2022/03/21 12:43:01;;;;;;;24.65;13.95;;;15.50;99.90;;;;;;5117639;27;20076;-85
2022/03/21 12:45:29;;;;;;;21.00;13.20;;;16.00;99.90;;;;;;5117721;27;20047;-85
2022/03/21 12:48:05;;;;;;;23.02;13.77;;;16.00;99.90;;;;;;5117106;27;20472;-86
2022/03/21 12:50:32;;;;;;;19.83;12.38;;;16.20;99.90;;;;;;5117405;27;20051;-85
2022/03/21 12:53:21;;;;;;;19.77;12.05;;;16.50;99.90;;;;;;5100361;27;20452;-85